DRRI weather

Bilma Airport
Bilma, Agadez Region, Niger

Public forecast

Using degrees Celsius for public forecast. Weather courtesy of forecast.io.

METAR (pilot weather report)

Report is more than 2 hours old.

Closest report is Mano Dayak International Airport, 299.5 nm (554.7 km) WSW. Retrieved 2019/02/19 20:00 UTC (4 hours ago):

DRZA 192000Z 06012KT CAVOK 21/M05 Q1015

TAF (pilot weather forecast)

Closest forecast is Mano Dayak International Airport, 299.5 nm (554.7 km) WSW. Retrieved 2019/02/19 18:21 UTC (5 hours ago):

TAF DRZA 191700Z 1918/2018 08014KT 4000 DU NSC TEMPO 2009/2015 12025KT 1200 BLDU